Cottonwood, Alabama
Current Conditions -  °F | °C
As of 6:53 AM on Saturday 22 Nov 2014 (Local Time) from KMAI Reporting Station
Scattered Clouds Scattered Clouds  
Wind Chill: 46°   Ceiling: Unl
Heat Index: 49°   Visibility: 10mi
Dew Point: 45°   Wind: 7mph
Humidity: 86%   Direction: 60°ENE
Pressure: 30.34"   Gusts: NA
Location:  31.05°N, 85.3°W
Report Text: KMAI 221253Z AUTO 06006KT 10SM SCT060 09/07 A3034 RMK AO2 SLP273 T00940072
Loading
Personal Weather Stations






























Interactive Weather Map New forecast layout! Learn more

10-Day Weather Forecast

Advertisements
Track Severe Weather on mobile